sensor_id;sensor_type;location;lat;lon;timestamp;temperature;humidity
13585;DHT22;6863;48.402;9.994;2023-02-28T00:01:20;-2.10;99.90
13585;DHT22;6863;48.402;9.994;2023-02-28T00:03:46;-2.10;99.90
13585;DHT22;6863;48.402;9.994;2023-02-28T00:06:12;-2.10;99.90
13585;DHT22;6863;48.402;9.994;2023-02-28T00:08:38;-2.00;99.90
13585;DHT22;6863;48.402;9.994;2023-02-28T00:11:06;-2.00;99.90
13585;DHT22;6863;48.402;9.994;2023-02-28T00:13:34;-2.00;99.90
13585;DHT22;6863;48.402;9.994;2023-02-28T00:16:12;-1.90;99.90
13585;DHT22;6863;48.402;9.994;2023-02-28T00:18:39;-1.90;99.90
13585;DHT22;6863;48.402;9.994;2023-02-28T00:21:05;-1.90;99.90
13585;DHT22;6863;48.402;9.994;2023-02-28T00:23:31;-1.90;99.90
13585;DHT22;6863;48.402;9.994;2023-02-28T00:25:57;-1.90;99.90
13585;DHT22;6863;48.402;9.994;2023-02-28T00:28:23;-1.80;99.90
13585;DHT22;6863;48.402;9.994;2023-02-28T00:30:49;-1.80;99.30
13585;DHT22;6863;48.402;9.994;2023-02-28T00:33:15;-1.80;99.10
13585;DHT22;6863;48.402;9.994;2023-02-28T00:35:41;-1.80;98.90
13585;DHT22;6863;48.402;9.994;2023-02-28T00:38:07;-1.80;98.90
13585;DHT22;6863;48.402;9.994;2023-02-28T00:40:33;-1.80;98.70
13585;DHT22;6863;48.402;9.994;2023-02-28T00:42:58;-1.70;98.20
13585;DHT22;6863;48.402;9.994;2023-02-28T00:45:24;-1.70;98.20
13585;DHT22;6863;48.402;9.994;2023-02-28T00:47:49;-1.70;97.80
13585;DHT22;6863;48.402;9.994;2023-02-28T00:50:19;-1.70;97.70
13585;DHT22;6863;48.402;9.994;2023-02-28T00:52:46;-1.70;97.60
13585;DHT22;6863;48.402;9.994;2023-02-28T00:55:11;-1.80;97.70
13585;DHT22;6863;48.402;9.994;2023-02-28T00:57:37;-1.70;97.30
13585;DHT22;6863;48.402;9.994;2023-02-28T01:00:04;-1.70;97.40
13585;DHT22;6863;48.402;9.994;2023-02-28T01:02:30;-1.80;97.60
13585;DHT22;6863;48.402;9.994;2023-02-28T01:04:55;-1.70;97.50
13585;DHT22;6863;48.402;9.994;2023-02-28T01:07:22;-1.70;97.30
13585;DHT22;6863;48.402;9.994;2023-02-28T01:09:48;-1.70;97.20
13585;DHT22;6863;48.402;9.994;2023-02-28T01:12:13;-1.70;97.10
13585;DHT22;6863;48.402;9.994;2023-02-28T01:14:39;-1.70;97.00
13585;DHT22;6863;48.402;9.994;2023-02-28T01:17:05;-1.70;97.10
13585;DHT22;6863;48.402;9.994;2023-02-28T01:19:30;-1.70;97.10
13585;DHT22;6863;48.402;9.994;2023-02-28T01:21:56;-1.70;97.10
13585;DHT22;6863;48.402;9.994;2023-02-28T01:24:22;-1.70;96.90
13585;DHT22;6863;48.402;9.994;2023-02-28T01:26:47;-1.70;96.90
13585;DHT22;6863;48.402;9.994;2023-02-28T01:29:13;-1.60;96.90
13585;DHT22;6863;48.402;9.994;2023-02-28T01:31:40;-1.70;96.80
13585;DHT22;6863;48.402;9.994;2023-02-28T01:34:05;-1.60;96.90
13585;DHT22;6863;48.402;9.994;2023-02-28T01:36:31;-1.60;96.90
13585;DHT22;6863;48.402;9.994;2023-02-28T01:38:56;-1.50;96.80
13585;DHT22;6863;48.402;9.994;2023-02-28T01:41:28;-1.60;96.90
13585;DHT22;6863;48.402;9.994;2023-02-28T01:46:22;-1.60;96.60
13585;DHT22;6863;48.402;9.994;2023-02-28T01:51:37;-1.70;96.70
13585;DHT22;6863;48.402;9.994;2023-02-28T01:54:09;-1.70;96.80
13585;DHT22;6863;48.402;9.994;2023-02-28T01:56:43;-1.70;97.00
13585;DHT22;6863;48.402;9.994;2023-02-28T01:59:09;-1.70;96.90
13585;DHT22;6863;48.402;9.994;2023-02-28T02:01:35;-1.70;96.70
13585;DHT22;6863;48.402;9.994;2023-02-28T02:04:02;-1.70;96.90
13585;DHT22;6863;48.402;9.994;2023-02-28T02:06:34;-1.70;97.00
13585;DHT22;6863;48.402;9.994;2023-02-28T02:09:00;-1.60;97.20
13585;DHT22;6863;48.402;9.994;2023-02-28T02:11:26;-1.70;96.80
13585;DHT22;6863;48.402;9.994;2023-02-28T02:17:14;-1.60;97.00
13585;DHT22;6863;48.402;9.994;2023-02-28T02:25:23;-1.70;96.90
13585;DHT22;6863;48.402;9.994;2023-02-28T02:34:17;-1.70;96.80
13585;DHT22;6863;48.402;9.994;2023-02-28T02:37:17;-1.70;96.60
13585;DHT22;6863;48.402;9.994;2023-02-28T02:40:16;-1.70;96.50
13585;DHT22;6863;48.402;9.994;2023-02-28T02:42:48;-1.70;96.30
13585;DHT22;6863;48.402;9.994;2023-02-28T02:47:45;-1.70;96.40
13585;DHT22;6863;48.402;9.994;2023-02-28T02:50:19;-1.70;96.20
13585;DHT22;6863;48.402;9.994;2023-02-28T02:52:52;-1.70;96.20
13585;DHT22;6863;48.402;9.994;2023-02-28T02:55:20;-1.70;96.20
13585;DHT22;6863;48.402;9.994;2023-02-28T02:57:59;-1.70;96.50
13585;DHT22;6863;48.402;9.994;2023-02-28T03:00:34;-1.70;96.20
13585;DHT22;6863;48.402;9.994;2023-02-28T03:03:01;-1.70;96.30
13585;DHT22;6863;48.402;9.994;2023-02-28T03:05:39;-1.70;96.30
13585;DHT22;6863;48.402;9.994;2023-02-28T03:08:06;-1.80;96.20
13585;DHT22;6863;48.402;9.994;2023-02-28T03:10:36;-1.80;96.40
13585;DHT22;6863;48.402;9.994;2023-02-28T03:18:41;-1.70;96.60
13585;DHT22;6863;48.402;9.994;2023-02-28T03:21:14;-1.70;96.50
13585;DHT22;6863;48.402;9.994;2023-02-28T03:26:26;-1.70;96.70
13585;DHT22;6863;48.402;9.994;2023-02-28T03:29:03;-1.70;96.70
13585;DHT22;6863;48.402;9.994;2023-02-28T03:31:58;-1.70;96.60
13585;DHT22;6863;48.402;9.994;2023-02-28T03:34:34;-1.70;96.70
13585;DHT22;6863;48.402;9.994;2023-02-28T03:37:08;-1.70;96.60
13585;DHT22;6863;48.402;9.994;2023-02-28T03:39:43;-1.70;96.40
13585;DHT22;6863;48.402;9.994;2023-02-28T03:42:15;-1.70;96.50
13585;DHT22;6863;48.402;9.994;2023-02-28T03:44:47;-1.70;96.50
13585;DHT22;6863;48.402;9.994;2023-02-28T03:47:23;-1.70;96.40
13585;DHT22;6863;48.402;9.994;2023-02-28T03:50:03;-1.60;96.40
13585;DHT22;6863;48.402;9.994;2023-02-28T03:52:34;-1.70;96.50
13585;DHT22;6863;48.402;9.994;2023-02-28T03:55:04;-1.70;96.50
13585;DHT22;6863;48.402;9.994;2023-02-28T03:57:38;-1.70;96.50
13585;DHT22;6863;48.402;9.994;2023-02-28T04:00:16;-1.70;96.70
13585;DHT22;6863;48.402;9.994;2023-02-28T04:02:44;-1.60;96.80
13585;DHT22;6863;48.402;9.994;2023-02-28T04:05:09;-1.60;96.80
13585;DHT22;6863;48.402;9.994;2023-02-28T04:07:35;-1.70;96.60
13585;DHT22;6863;48.402;9.994;2023-02-28T04:10:01;-1.60;96.70
13585;DHT22;6863;48.402;9.994;2023-02-28T04:12:26;-1.60;96.90
13585;DHT22;6863;48.402;9.994;2023-02-28T04:14:52;-1.60;96.50
13585;DHT22;6863;48.402;9.994;2023-02-28T04:17:17;-1.60;96.60
13585;DHT22;6863;48.402;9.994;2023-02-28T04:19:43;-1.60;96.40
13585;DHT22;6863;48.402;9.994;2023-02-28T04:22:12;-1.60;96.40
13585;DHT22;6863;48.402;9.994;2023-02-28T04:24:38;-1.60;96.60
13585;DHT22;6863;48.402;9.994;2023-02-28T04:27:07;-1.60;96.50
13585;DHT22;6863;48.402;9.994;2023-02-28T04:29:33;-1.60;96.50
13585;DHT22;6863;48.402;9.994;2023-02-28T04:32:00;-1.60;96.60
13585;DHT22;6863;48.402;9.994;2023-02-28T04:34:28;-1.60;96.80
13585;DHT22;6863;48.402;9.994;2023-02-28T04:36:55;-1.60;96.70
13585;DHT22;6863;48.402;9.994;2023-02-28T04:39:22;-1.60;97.10
13585;DHT22;6863;48.402;9.994;2023-02-28T04:41:48;-1.60;96.80
13585;DHT22;6863;48.402;9.994;2023-02-28T04:44:14;-1.50;96.80
13585;DHT22;6863;48.402;9.994;2023-02-28T04:46:40;-1.60;96.70
13585;DHT22;6863;48.402;9.994;2023-02-28T04:49:05;-1.60;96.80
13585;DHT22;6863;48.402;9.994;2023-02-28T04:51:31;-1.60;96.80
13585;DHT22;6863;48.402;9.994;2023-02-28T04:53:57;-1.60;96.90
13585;DHT22;6863;48.402;9.994;2023-02-28T04:56:23;-1.60;97.10
13585;DHT22;6863;48.402;9.994;2023-02-28T04:58:49;-1.60;97.00
13585;DHT22;6863;48.402;9.994;2023-02-28T05:01:17;-1.60;97.00
13585;DHT22;6863;48.402;9.994;2023-02-28T05:03:43;-1.60;97.00
13585;DHT22;6863;48.402;9.994;2023-02-28T05:06:10;-1.60;96.90
13585;DHT22;6863;48.402;9.994;2023-02-28T05:08:36;-1.70;96.80
13585;DHT22;6863;48.402;9.994;2023-02-28T05:11:02;-1.70;96.80
13585;DHT22;6863;48.402;9.994;2023-02-28T05:13:28;-1.60;97.00
13585;DHT22;6863;48.402;9.994;2023-02-28T05:15:54;-1.70;96.90
13585;DHT22;6863;48.402;9.994;2023-02-28T05:18:20;-1.70;96.90
13585;DHT22;6863;48.402;9.994;2023-02-28T05:20:46;-1.70;97.00
13585;DHT22;6863;48.402;9.994;2023-02-28T05:23:13;-1.60;97.20
13585;DHT22;6863;48.402;9.994;2023-02-28T05:25:40;-1.60;97.10
13585;DHT22;6863;48.402;9.994;2023-02-28T05:28:06;-1.60;97.00
13585;DHT22;6863;48.402;9.994;2023-02-28T05:30:32;-1.70;97.00
13585;DHT22;6863;48.402;9.994;2023-02-28T05:32:58;-1.60;97.00
13585;DHT22;6863;48.402;9.994;2023-02-28T05:35:25;-1.60;96.90
13585;DHT22;6863;48.402;9.994;2023-02-28T05:37:51;-1.60;96.90
13585;DHT22;6863;48.402;9.994;2023-02-28T05:40:17;-1.70;97.00
13585;DHT22;6863;48.402;9.994;2023-02-28T05:42:43;-1.60;97.10
13585;DHT22;6863;48.402;9.994;2023-02-28T05:45:09;-1.70;96.80
13585;DHT22;6863;48.402;9.994;2023-02-28T05:47:35;-1.70;97.00
13585;DHT22;6863;48.402;9.994;2023-02-28T05:50:02;-1.70;97.00
13585;DHT22;6863;48.402;9.994;2023-02-28T05:52:28;-1.60;97.30
13585;DHT22;6863;48.402;9.994;2023-02-28T05:54:55;-1.60;97.20
13585;DHT22;6863;48.402;9.994;2023-02-28T05:57:21;-1.60;97.10
13585;DHT22;6863;48.402;9.994;2023-02-28T05:59:47;-1.60;97.30
13585;DHT22;6863;48.402;9.994;2023-02-28T06:02:14;-1.60;97.10
13585;DHT22;6863;48.402;9.994;2023-02-28T06:04:40;-1.60;97.00
13585;DHT22;6863;48.402;9.994;2023-02-28T06:07:07;-1.60;97.20
13585;DHT22;6863;48.402;9.994;2023-02-28T06:09:32;-1.60;96.90
13585;DHT22;6863;48.402;9.994;2023-02-28T06:11:59;-1.60;97.00
13585;DHT22;6863;48.402;9.994;2023-02-28T06:14:26;-1.60;97.00
13585;DHT22;6863;48.402;9.994;2023-02-28T06:16:51;-1.60;97.10
13585;DHT22;6863;48.402;9.994;2023-02-28T06:19:20;-1.60;97.10
13585;DHT22;6863;48.402;9.994;2023-02-28T06:21:49;-1.70;97.00
13585;DHT22;6863;48.402;9.994;2023-02-28T06:24:16;-1.70;96.80
13585;DHT22;6863;48.402;9.994;2023-02-28T06:26:41;-1.60;96.80
13585;DHT22;6863;48.402;9.994;2023-02-28T06:29:07;-1.70;96.90
13585;DHT22;6863;48.402;9.994;2023-02-28T06:31:32;-1.70;96.80
13585;DHT22;6863;48.402;9.994;2023-02-28T06:33:58;-1.70;96.80
13585;DHT22;6863;48.402;9.994;2023-02-28T06:36:24;-1.60;96.80
13585;DHT22;6863;48.402;9.994;2023-02-28T06:38:49;-1.60;96.80
13585;DHT22;6863;48.402;9.994;2023-02-28T06:41:21;-1.60;96.80
13585;DHT22;6863;48.402;9.994;2023-02-28T06:43:47;-1.60;96.80
13585;DHT22;6863;48.402;9.994;2023-02-28T06:46:13;-1.60;96.80
13585;DHT22;6863;48.402;9.994;2023-02-28T06:48:40;-1.60;96.80
13585;DHT22;6863;48.402;9.994;2023-02-28T06:51:08;-1.60;96.70
13585;DHT22;6863;48.402;9.994;2023-02-28T06:53:34;-1.60;96.70
13585;DHT22;6863;48.402;9.994;2023-02-28T06:56:08;-1.60;96.70
13585;DHT22;6863;48.402;9.994;2023-02-28T06:58:34;-1.60;96.80
13585;DHT22;6863;48.402;9.994;2023-02-28T07:01:00;-1.60;96.60
13585;DHT22;6863;48.402;9.994;2023-02-28T07:03:26;-1.60;96.70
13585;DHT22;6863;48.402;9.994;2023-02-28T07:05:52;-1.60;96.60
13585;DHT22;6863;48.402;9.994;2023-02-28T07:08:17;-1.60;96.70
13585;DHT22;6863;48.402;9.994;2023-02-28T07:10:43;-1.50;96.70
13585;DHT22;6863;48.402;9.994;2023-02-28T07:13:09;-1.50;96.60
13585;DHT22;6863;48.402;9.994;2023-02-28T07:15:36;-1.60;96.60
13585;DHT22;6863;48.402;9.994;2023-02-28T07:18:02;-1.60;96.60
13585;DHT22;6863;48.402;9.994;2023-02-28T07:23:00;-1.50;96.60
13585;DHT22;6863;48.402;9.994;2023-02-28T07:25:27;-1.50;96.70
13585;DHT22;6863;48.402;9.994;2023-02-28T07:27:54;-1.50;96.80
13585;DHT22;6863;48.402;9.994;2023-02-28T07:30:19;-1.40;96.60
13585;DHT22;6863;48.402;9.994;2023-02-28T07:32:45;-1.50;96.50
13585;DHT22;6863;48.402;9.994;2023-02-28T07:35:11;-1.50;96.60
13585;DHT22;6863;48.402;9.994;2023-02-28T07:37:37;-1.50;96.40
13585;DHT22;6863;48.402;9.994;2023-02-28T07:40:04;-1.40;96.80
13585;DHT22;6863;48.402;9.994;2023-02-28T07:42:41;-1.40;96.30
13585;DHT22;6863;48.402;9.994;2023-02-28T07:45:08;-1.50;96.30
13585;DHT22;6863;48.402;9.994;2023-02-28T07:47:34;-1.40;96.40
13585;DHT22;6863;48.402;9.994;2023-02-28T07:50:00;-1.40;96.30
13585;DHT22;6863;48.402;9.994;2023-02-28T07:52:25;-1.30;96.40
13585;DHT22;6863;48.402;9.994;2023-02-28T07:54:52;-1.40;96.10
13585;DHT22;6863;48.402;9.994;2023-02-28T07:57:18;-1.40;96.10
13585;DHT22;6863;48.402;9.994;2023-02-28T07:59:43;-1.40;96.20
13585;DHT22;6863;48.402;9.994;2023-02-28T08:02:16;-1.40;96.20
13585;DHT22;6863;48.402;9.994;2023-02-28T08:04:42;-1.30;96.20
13585;DHT22;6863;48.402;9.994;2023-02-28T08:07:08;-1.40;96.10
13585;DHT22;6863;48.402;9.994;2023-02-28T08:09:38;-1.40;96.10
13585;DHT22;6863;48.402;9.994;2023-02-28T08:12:04;-1.30;96.20
13585;DHT22;6863;48.402;9.994;2023-02-28T08:14:30;-1.30;96.00
13585;DHT22;6863;48.402;9.994;2023-02-28T08:16:55;-1.30;96.00
13585;DHT22;6863;48.402;9.994;2023-02-28T08:19:21;-1.20;96.00
13585;DHT22;6863;48.402;9.994;2023-02-28T08:21:47;-1.30;96.10
13585;DHT22;6863;48.402;9.994;2023-02-28T08:24:12;-1.20;96.50
13585;DHT22;6863;48.402;9.994;2023-02-28T08:26:38;-1.20;96.00
13585;DHT22;6863;48.402;9.994;2023-02-28T08:29:06;-1.10;95.90
13585;DHT22;6863;48.402;9.994;2023-02-28T08:31:32;-1.10;95.80
13585;DHT22;6863;48.402;9.994;2023-02-28T08:33:57;-1.00;95.80
13585;DHT22;6863;48.402;9.994;2023-02-28T08:36:25;-0.90;95.50
13585;DHT22;6863;48.402;9.994;2023-02-28T08:38:51;-0.90;95.50
13585;DHT22;6863;48.402;9.994;2023-02-28T08:41:17;-0.90;95.40
13585;DHT22;6863;48.402;9.994;2023-02-28T08:43:43;-0.80;95.40
13585;DHT22;6863;48.402;9.994;2023-02-28T08:46:11;-0.70;95.30
13585;DHT22;6863;48.402;9.994;2023-02-28T08:48:38;-0.70;94.80
13585;DHT22;6863;48.402;9.994;2023-02-28T08:51:10;-0.80;94.80
13585;DHT22;6863;48.402;9.994;2023-02-28T08:53:37;-0.80;94.80
13585;DHT22;6863;48.402;9.994;2023-02-28T08:56:05;-0.80;94.90
13585;DHT22;6863;48.402;9.994;2023-02-28T08:58:31;-0.80;94.80
13585;DHT22;6863;48.402;9.994;2023-02-28T09:00:57;-0.70;94.90
13585;DHT22;6863;48.402;9.994;2023-02-28T09:03:24;-0.60;94.70
13585;DHT22;6863;48.402;9.994;2023-02-28T09:05:58;-0.60;94.50
13585;DHT22;6863;48.402;9.994;2023-02-28T09:08:25;-0.60;94.40
13585;DHT22;6863;48.402;9.994;2023-02-28T09:10:51;-0.40;94.70
13585;DHT22;6863;48.402;9.994;2023-02-28T09:13:17;-0.20;94.90
13585;DHT22;6863;48.402;9.994;2023-02-28T09:15:43;-0.30;94.10
13585;DHT22;6863;48.402;9.994;2023-02-28T09:18:09;-0.30;93.90
13585;DHT22;6863;48.402;9.994;2023-02-28T09:20:37;-0.20;94.00
13585;DHT22;6863;48.402;9.994;2023-02-28T09:23:03;-0.10;93.60
13585;DHT22;6863;48.402;9.994;2023-02-28T09:25:33;0.10;93.60
13585;DHT22;6863;48.402;9.994;2023-02-28T09:27:59;0.00;93.20
13585;DHT22;6863;48.402;9.994;2023-02-28T09:30:24;-0.10;93.10
13585;DHT22;6863;48.402;9.994;2023-02-28T09:32:50;-0.10;93.10
13585;DHT22;6863;48.402;9.994;2023-02-28T09:35:19;0.00;93.20
13585;DHT22;6863;48.402;9.994;2023-02-28T09:37:47;0.10;93.00
13585;DHT22;6863;48.402;9.994;2023-02-28T09:40:14;0.20;92.90
13585;DHT22;6863;48.402;9.994;2023-02-28T09:42:42;0.40;92.40
13585;DHT22;6863;48.402;9.994;2023-02-28T09:45:41;0.40;92.20
13585;DHT22;6863;48.402;9.994;2023-02-28T09:48:16;0.40;91.60
13585;DHT22;6863;48.402;9.994;2023-02-28T09:50:49;0.30;91.80
13585;DHT22;6863;48.402;9.994;2023-02-28T09:53:31;0.40;91.80
13585;DHT22;6863;48.402;9.994;2023-02-28T09:56:02;0.70;91.70
13585;DHT22;6863;48.402;9.994;2023-02-28T09:58:48;0.80;91.30
13585;DHT22;6863;48.402;9.994;2023-02-28T10:01:25;1.00;91.10
13585;DHT22;6863;48.402;9.994;2023-02-28T10:04:05;1.00;91.00
13585;DHT22;6863;48.402;9.994;2023-02-28T10:06:39;1.10;90.40
13585;DHT22;6863;48.402;9.994;2023-02-28T10:09:19;1.20;90.10
13585;DHT22;6863;48.402;9.994;2023-02-28T10:11:50;1.00;90.00
13585;DHT22;6863;48.402;9.994;2023-02-28T10:14:19;1.30;90.00
13585;DHT22;6863;48.402;9.994;2023-02-28T10:16:53;1.50;89.60
13585;DHT22;6863;48.402;9.994;2023-02-28T10:19:34;1.50;88.20
13585;DHT22;6863;48.402;9.994;2023-02-28T10:22:05;1.40;88.30
13585;DHT22;6863;48.402;9.994;2023-02-28T10:24:51;1.40;88.20
13585;DHT22;6863;48.402;9.994;2023-02-28T10:27:19;1.40;88.20
13585;DHT22;6863;48.402;9.994;2023-02-28T10:29:53;2.00;88.20
13585;DHT22;6863;48.402;9.994;2023-02-28T10:32:25;3.10;88.50
13585;DHT22;6863;48.402;9.994;2023-02-28T10:35:14;5.40;78.30
13585;DHT22;6863;48.402;9.994;2023-02-28T10:37:42;5.80;69.70
13585;DHT22;6863;48.402;9.994;2023-02-28T10:40:35;5.90;68.30
13585;DHT22;6863;48.402;9.994;2023-02-28T10:43:03;7.40;64.60
13585;DHT22;6863;48.402;9.994;2023-02-28T10:45:30;7.00;61.30
13585;DHT22;6863;48.402;9.994;2023-02-28T10:48:01;6.50;60.80
13585;DHT22;6863;48.402;9.994;2023-02-28T10:50:29;6.00;63.60
13585;DHT22;6863;48.402;9.994;2023-02-28T10:53:14;6.40;64.50
13585;DHT22;6863;48.402;9.994;2023-02-28T10:55:41;7.80;64.00
13585;DHT22;6863;48.402;9.994;2023-02-28T10:58:31;10.70;55.10
13585;DHT22;6863;48.402;9.994;2023-02-28T11:00:58;12.40;46.30
13585;DHT22;6863;48.402;9.994;2023-02-28T11:03:33;11.40;45.10
13585;DHT22;6863;48.402;9.994;2023-02-28T11:06:05;11.20;46.20
13585;DHT22;6863;48.402;9.994;2023-02-28T11:08:31;12.50;44.60
13585;DHT22;6863;48.402;9.994;2023-02-28T11:10:59;11.80;42.80
13585;DHT22;6863;48.402;9.994;2023-02-28T11:13:32;11.30;43.90
13585;DHT22;6863;48.402;9.994;2023-02-28T11:16:02;10.50;44.70
13585;DHT22;6863;48.402;9.994;2023-02-28T11:18:59;10.30;45.90
13585;DHT22;6863;48.402;9.994;2023-02-28T11:21:28;10.20;46.50
13585;DHT22;6863;48.402;9.994;2023-02-28T11:26:59;9.60;47.50
13585;DHT22;6863;48.402;9.994;2023-02-28T11:29:30;9.40;48.50
13585;DHT22;6863;48.402;9.994;2023-02-28T11:34:38;9.50;48.70
13585;DHT22;6863;48.402;9.994;2023-02-28T11:37:09;9.20;48.50
13585;DHT22;6863;48.402;9.994;2023-02-28T11:39:36;8.50;49.40
13585;DHT22;6863;48.402;9.994;2023-02-28T11:42:13;8.60;50.40
13585;DHT22;6863;48.402;9.994;2023-02-28T11:47:42;10.80;47.30
13585;DHT22;6863;48.402;9.994;2023-02-28T11:50:39;11.50;44.40
13585;DHT22;6863;48.402;9.994;2023-02-28T11:53:34;11.20;44.50
13585;DHT22;6863;48.402;9.994;2023-02-28T12:02:16;12.60;42.60
13585;DHT22;6863;48.402;9.994;2023-02-28T12:04:58;14.20;40.10
13585;DHT22;6863;48.402;9.994;2023-02-28T12:10:26;17.10;36.60
13585;DHT22;6863;48.402;9.994;2023-02-28T12:26:39;20.50;27.80
13585;DHT22;6863;48.402;9.994;2023-02-28T12:31:58;22.60;26.90
13585;DHT22;6863;48.402;9.994;2023-02-28T12:34:32;23.00;25.70
13585;DHT22;6863;48.402;9.994;2023-02-28T12:37:02;23.90;25.70
13585;DHT22;6863;48.402;9.994;2023-02-28T12:39:33;22.90;25.00
13585;DHT22;6863;48.402;9.994;2023-02-28T12:42:09;23.10;25.00
13585;DHT22;6863;48.402;9.994;2023-02-28T12:44:44;23.20;25.30
13585;DHT22;6863;48.402;9.994;2023-02-28T12:47:16;24.10;25.20
13585;DHT22;6863;48.402;9.994;2023-02-28T12:55:08;22.00;25.30
13585;DHT22;6863;48.402;9.994;2023-02-28T12:57:41;22.10;25.80
13585;DHT22;6863;48.402;9.994;2023-02-28T13:00:18;20.40;25.70
13585;DHT22;6863;48.402;9.994;2023-02-28T13:03:17;19.60;27.50
13585;DHT22;6863;48.402;9.994;2023-02-28T13:08:59;21.70;25.70
13585;DHT22;6863;48.402;9.994;2023-02-28T13:11:30;22.00;25.60
13585;DHT22;6863;48.402;9.994;2023-02-28T13:14:02;22.10;25.50
13585;DHT22;6863;48.402;9.994;2023-02-28T13:17:01;23.10;25.20
13585;DHT22;6863;48.402;9.994;2023-02-28T13:19:29;22.40;24.90
13585;DHT22;6863;48.402;9.994;2023-02-28T13:21:56;20.60;25.40
13585;DHT22;6863;48.402;9.994;2023-02-28T13:24:52;20.80;26.70
13585;DHT22;6863;48.402;9.994;2023-02-28T13:27:31;20.70;26.30
13585;DHT22;6863;48.402;9.994;2023-02-28T13:29:57;20.10;26.30
13585;DHT22;6863;48.402;9.994;2023-02-28T13:42:47;21.30;26.30
13585;DHT22;6863;48.402;9.994;2023-02-28T13:45:22;21.50;25.90
13585;DHT22;6863;48.402;9.994;2023-02-28T13:47:59;21.70;25.30
13585;DHT22;6863;48.402;9.994;2023-02-28T13:58:04;21.20;26.10
13585;DHT22;6863;48.402;9.994;2023-02-28T14:00:45;21.00;25.90
13585;DHT22;6863;48.402;9.994;2023-02-28T14:03:36;20.10;26.00
13585;DHT22;6863;48.402;9.994;2023-02-28T14:06:29;20.20;27.70
13585;DHT22;6863;48.402;9.994;2023-02-28T14:09:15;20.10;26.90
13585;DHT22;6863;48.402;9.994;2023-02-28T14:11:43;18.10;27.70
13585;DHT22;6863;48.402;9.994;2023-02-28T14:16:55;17.20;28.70
13585;DHT22;6863;48.402;9.994;2023-02-28T14:19:26;16.80;29.20
13585;DHT22;6863;48.402;9.994;2023-02-28T14:33:10;13.90;32.60
13585;DHT22;6863;48.402;9.994;2023-02-28T14:36:08;12.70;33.60
13585;DHT22;6863;48.402;9.994;2023-02-28T14:38:56;11.60;36.40
13585;DHT22;6863;48.402;9.994;2023-02-28T14:41:32;11.50;37.20
13585;DHT22;6863;48.402;9.994;2023-02-28T14:44:01;12.30;36.90
13585;DHT22;6863;48.402;9.994;2023-02-28T14:46:39;13.80;34.70
13585;DHT22;6863;48.402;9.994;2023-02-28T14:49:06;13.30;33.70
13585;DHT22;6863;48.402;9.994;2023-02-28T14:51:35;12.70;34.20
13585;DHT22;6863;48.402;9.994;2023-02-28T14:54:01;12.20;35.10
13585;DHT22;6863;48.402;9.994;2023-02-28T14:56:35;12.50;35.60
13585;DHT22;6863;48.402;9.994;2023-02-28T14:59:01;12.50;35.10
13585;DHT22;6863;48.402;9.994;2023-02-28T15:01:27;12.20;35.30
13585;DHT22;6863;48.402;9.994;2023-02-28T15:04:05;11.90;36.10
13585;DHT22;6863;48.402;9.994;2023-02-28T15:06:32;11.40;36.70
13585;DHT22;6863;48.402;9.994;2023-02-28T15:09:18;11.50;37.00
13585;DHT22;6863;48.402;9.994;2023-02-28T15:11:48;11.40;37.50
13585;DHT22;6863;48.402;9.994;2023-02-28T15:14:18;12.20;37.20
13585;DHT22;6863;48.402;9.994;2023-02-28T15:16:49;12.90;35.80
13585;DHT22;6863;48.402;9.994;2023-02-28T15:19:34;12.30;35.60
13585;DHT22;6863;48.402;9.994;2023-02-28T15:22:08;11.10;37.30
13585;DHT22;6863;48.402;9.994;2023-02-28T15:24:42;10.90;38.50
13585;DHT22;6863;48.402;9.994;2023-02-28T15:27:22;10.50;38.90
13585;DHT22;6863;48.402;9.994;2023-02-28T15:29:51;10.10;39.30
13585;DHT22;6863;48.402;9.994;2023-02-28T15:32:30;9.90;41.20
13585;DHT22;6863;48.402;9.994;2023-02-28T15:34:58;9.00;42.20
13585;DHT22;6863;48.402;9.994;2023-02-28T15:37:33;8.80;43.10
13585;DHT22;6863;48.402;9.994;2023-02-28T15:42:37;8.00;44.50
13585;DHT22;6863;48.402;9.994;2023-02-28T15:45:02;8.00;45.00
13585;DHT22;6863;48.402;9.994;2023-02-28T15:47:30;8.70;44.90
13585;DHT22;6863;48.402;9.994;2023-02-28T15:50:08;8.80;43.90
13585;DHT22;6863;48.402;9.994;2023-02-28T15:52:43;9.10;43.90
13585;DHT22;6863;48.402;9.994;2023-02-28T15:55:26;9.70;43.10
13585;DHT22;6863;48.402;9.994;2023-02-28T15:57:55;9.70;42.10
13585;DHT22;6863;48.402;9.994;2023-02-28T16:00:25;9.30;42.40
13585;DHT22;6863;48.402;9.994;2023-02-28T16:02:51;8.80;43.40
13585;DHT22;6863;48.402;9.994;2023-02-28T16:05:26;8.90;43.60
13585;DHT22;6863;48.402;9.994;2023-02-28T16:08:13;8.80;43.90
13585;DHT22;6863;48.402;9.994;2023-02-28T16:10:39;8.70;44.10
13585;DHT22;6863;48.402;9.994;2023-02-28T16:13:05;8.00;44.70
13585;DHT22;6863;48.402;9.994;2023-02-28T16:15:37;7.40;46.00
13585;DHT22;6863;48.402;9.994;2023-02-28T16:18:10;7.10;47.40
13585;DHT22;6863;48.402;9.994;2023-02-28T16:20:36;6.80;48.90
13585;DHT22;6863;48.402;9.994;2023-02-28T16:23:05;6.60;48.90
13585;DHT22;6863;48.402;9.994;2023-02-28T16:25:36;6.30;49.70
13585;DHT22;6863;48.402;9.994;2023-02-28T16:28:02;6.00;50.20
13585;DHT22;6863;48.402;9.994;2023-02-28T16:30:29;5.60;51.20
13585;DHT22;6863;48.402;9.994;2023-02-28T16:32:57;5.30;52.10
13585;DHT22;6863;48.402;9.994;2023-02-28T16:35:24;5.20;53.00
13585;DHT22;6863;48.402;9.994;2023-02-28T16:37:53;4.80;53.60
13585;DHT22;6863;48.402;9.994;2023-02-28T16:40:24;4.70;54.40
13585;DHT22;6863;48.402;9.994;2023-02-28T16:42:55;4.70;55.00
13585;DHT22;6863;48.402;9.994;2023-02-28T16:45:25;4.80;55.10
13585;DHT22;6863;48.402;9.994;2023-02-28T16:47:51;4.60;55.40
13585;DHT22;6863;48.402;9.994;2023-02-28T16:50:23;4.20;56.00
13585;DHT22;6863;48.402;9.994;2023-02-28T16:52:49;4.00;56.90
13585;DHT22;6863;48.402;9.994;2023-02-28T16:55:17;3.80;57.60
13585;DHT22;6863;48.402;9.994;2023-02-28T16:57:43;3.60;58.60
13585;DHT22;6863;48.402;9.994;2023-02-28T17:00:12;3.30;59.50
13585;DHT22;6863;48.402;9.994;2023-02-28T17:02:38;3.20;60.80
13585;DHT22;6863;48.402;9.994;2023-02-28T17:05:05;3.00;61.50
13585;DHT22;6863;48.402;9.994;2023-02-28T17:07:31;2.90;62.90
13585;DHT22;6863;48.402;9.994;2023-02-28T17:09:57;2.70;64.30
13585;DHT22;6863;48.402;9.994;2023-02-28T17:12:23;2.50;65.70
13585;DHT22;6863;48.402;9.994;2023-02-28T17:14:48;2.40;67.10
13585;DHT22;6863;48.402;9.994;2023-02-28T17:17:19;2.30;68.40
13585;DHT22;6863;48.402;9.994;2023-02-28T17:19:46;2.20;69.70
13585;DHT22;6863;48.402;9.994;2023-02-28T17:22:11;2.10;70.90
13585;DHT22;6863;48.402;9.994;2023-02-28T17:24:37;1.90;73.10
13585;DHT22;6863;48.402;9.994;2023-02-28T17:27:03;1.80;74.00
13585;DHT22;6863;48.402;9.994;2023-02-28T17:29:29;1.70;75.50
13585;DHT22;6863;48.402;9.994;2023-02-28T17:31:55;1.70;77.20
13585;DHT22;6863;48.402;9.994;2023-02-28T17:34:20;1.60;78.20
13585;DHT22;6863;48.402;9.994;2023-02-28T17:36:48;1.50;79.60
13585;DHT22;6863;48.402;9.994;2023-02-28T17:39:14;1.40;80.40
13585;DHT22;6863;48.402;9.994;2023-02-28T17:41:45;1.30;81.60
13585;DHT22;6863;48.402;9.994;2023-02-28T17:44:10;1.30;83.00
13585;DHT22;6863;48.402;9.994;2023-02-28T17:46:36;1.20;84.30
13585;DHT22;6863;48.402;9.994;2023-02-28T17:49:02;1.10;85.60
13585;DHT22;6863;48.402;9.994;2023-02-28T17:51:28;1.00;86.50
13585;DHT22;6863;48.402;9.994;2023-02-28T17:53:53;1.00;87.40
13585;DHT22;6863;48.402;9.994;2023-02-28T17:56:22;0.90;88.00
13585;DHT22;6863;48.402;9.994;2023-02-28T17:58:48;0.90;88.90